Humidity-temperature Sensor

Selected Measurement Type: Air Temperature

 
Air Temperature [°C]     6 entries per hour
Showing data from 8/23/2016 (00:00:00 Z) to 8/20/2016 (00:01:00 Z)
Previous Next [ Day | 3-Days | 7-Days ]
First Last
Prev [ Day | 3-Days | 7-Days ] Next
First Last

Start Time:     :
End Time:     :     
Time (in GMT) :00 :50 :40 :30 :20 :10
Previous Next [ Day | 3-Days | 7-Days ]
First Last
Prev [ Day | 3-Days | 7-Days ] Next
First Last


123 => good data
MM => data is determined as missing
-- => data not received/configured
Back to Top Back to Top
8/23/2016 00:00 to 23:10 20.41 20.42 20.48 20.47 20.46 20.51
8/22/2016 23:00 to 22:10 20.44 20.40 20.43 20.41 20.43 20.37
8/22/2016 22:00 to 21:10 20.40 20.37 20.33 20.30 20.25 20.25
8/22/2016 21:00 to 20:10 20.24 20.20 20.16 20.14 20.09 20.11
8/22/2016 20:00 to 19:10 20.06 20.06 20.05 20.02 20.01 19.96
8/22/2016 19:00 to 18:10 19.96 19.95 19.98 19.98 19.97 19.99
8/22/2016 18:00 to 17:10 19.96 19.93 19.88 19.88 19.92 19.93
8/22/2016 17:00 to 16:10 19.98 19.97 19.90 19.95 19.94 19.90
8/22/2016 16:00 to 15:10 19.95 19.97 19.91 19.95 19.93 19.94
8/22/2016 15:00 to 14:10 19.95 19.97 19.98 19.98 19.95 19.95
8/22/2016 14:00 to 13:10 19.94 19.94 19.95 19.95 19.92 19.88
8/22/2016 13:00 to 12:10 19.80 19.69 19.61 19.55 19.55 19.56
8/22/2016 12:00 to 11:10 19.56 19.56 19.58 19.58 19.60 19.60
8/22/2016 11:00 to 10:10 19.61 19.64 19.64 19.65 19.66 19.68
8/22/2016 10:00 to 9:10 19.71 19.76 19.75 19.77 19.76 19.79
8/22/2016 09:00 to 8:10 19.80 19.83 19.84 19.85 19.89 19.91
8/22/2016 08:00 to 7:10 19.96 19.95 19.97 19.97 19.98 20.01
8/22/2016 07:00 to 6:10 20.03 20.04 20.06 20.07 20.09 20.11
8/22/2016 06:00 to 5:10 20.10 20.04 20.07 20.07 20.11 20.15
8/22/2016 05:00 to 4:10 20.22 20.26 20.29 20.30 20.36 20.36
8/22/2016 04:00 to 3:10 20.33 20.37 20.36 20.40 20.40 20.33
8/22/2016 03:00 to 2:10 20.21 20.21 20.22 20.22 20.22 20.26
8/22/2016 02:00 to 1:10 20.23 20.27 20.26 20.29 20.29 20.32
8/22/2016 01:00 to 0:10 20.28 20.30 20.31 20.33 20.42 20.44
8/22/2016 00:00 to 23:10 20.46 20.50 20.50 20.54 20.58 20.57
8/21/2016 23:00 to 22:10 20.58 20.62 20.62 20.62 20.65 20.64
8/21/2016 22:00 to 21:10 20.64 20.61 20.58 20.74 20.72 20.75
8/21/2016 21:00 to 20:10 20.72 20.69 20.70 20.72 20.76 20.76
8/21/2016 20:00 to 19:10 20.76 20.73 20.72 20.73 20.72 20.64
8/21/2016 19:00 to 18:10 20.63 20.66 20.54 20.53 20.54 20.60
8/21/2016 18:00 to 17:10 20.58 20.56 20.57 20.59 20.56 20.52
8/21/2016 17:00 to 16:10 20.49 20.44 20.46 20.47 20.45 20.45
8/21/2016 16:00 to 15:10 20.44 20.42 20.42 20.43 20.37 20.38
8/21/2016 15:00 to 14:10 20.37 20.33 20.28 20.34 20.36 20.41
8/21/2016 14:00 to 13:10 20.37 20.38 20.36 20.37 20.41 20.37
8/21/2016 13:00 to 12:10 20.38 20.41 20.42 20.45 20.41 20.37
8/21/2016 12:00 to 11:10 20.33 20.34 20.37 20.39 20.40 20.42
8/21/2016 11:00 to 10:10 20.44 20.46 20.43 20.46 20.48 20.44
8/21/2016 10:00 to 9:10 20.43 20.44 20.40 20.44 20.46 20.49
8/21/2016 09:00 to 8:10 20.41 20.48 20.46 20.44 20.52 20.49
8/21/2016 08:00 to 7:10 20.47 20.51 20.52 20.55 20.46 20.49
8/21/2016 07:00 to 6:10 20.52 20.52 20.51 20.56 20.58 20.56
8/21/2016 06:00 to 5:10 20.62 20.58 20.56 20.58 20.61 20.64
8/21/2016 05:00 to 4:10 20.60 20.62 20.62 20.63 20.71 20.69
8/21/2016 04:00 to 3:10 20.67 20.72 20.70 20.76 20.75 20.79
8/21/2016 03:00 to 2:10 20.74 20.73 20.73 20.71 20.74 20.72
8/21/2016 02:00 to 1:10 20.73 20.71 20.73 20.75 20.73 20.73
8/21/2016 01:00 to 0:10 20.75 20.71 20.61 20.45 20.65 20.78
8/21/2016 00:00 to 23:10 20.73 20.77 20.81 20.78 20.81 20.76
8/20/2016 23:00 to 22:10 20.85 20.81 20.83 20.86 20.92 20.82
8/20/2016 22:00 to 21:10 20.83 20.85 20.88 20.92 20.88 20.88
8/20/2016 21:00 to 20:10 20.83 20.92 20.85 20.79 20.77 20.83
8/20/2016 20:00 to 19:10 20.79 20.87 20.77 20.77 20.79 20.74
8/20/2016 19:00 to 18:10 20.73 20.69 20.58 20.52 20.38 20.22
8/20/2016 18:00 to 17:10 20.43 20.45 20.53 20.44 20.39 20.32
8/20/2016 17:00 to 16:10 20.33 20.40 20.23 20.20 20.23 20.28
8/20/2016 16:00 to 15:10 -- -- -- -- -- --
8/20/2016 15:00 to 14:10 20.56 20.46 20.51 20.44 20.52 20.33
8/20/2016 14:00 to 13:10 20.37 20.59 20.59 20.51 20.56 20.44
8/20/2016 13:00 to 12:10 20.34 20.28 20.27 20.56 20.36 20.23
8/20/2016 12:00 to 11:10 20.35 20.47 20.52 20.56 20.49 20.40
8/20/2016 11:00 to 10:10 20.58 20.80 20.83 20.60 20.70 20.66
8/20/2016 10:00 to 9:10 20.49 20.92 20.91 21.07 21.01 20.91
8/20/2016 09:00 to 8:10 20.58 20.05 20.17 20.66 20.50 20.57
8/20/2016 08:00 to 7:10 20.25 20.64 20.80 20.95 20.93 21.14
8/20/2016 07:00 to 6:10 21.08 20.95 20.89 21.08 21.08 21.14
8/20/2016 06:00 to 5:10 21.21 21.11 21.11 21.10 21.13 21.39
8/20/2016 05:00 to 4:10 21.28 21.51 21.52 21.44 21.38 21.27
8/20/2016 04:00 to 3:10 21.28 21.43 21.44 21.27 21.03 21.03
8/20/2016 03:00 to 2:10 20.90 21.22 21.34 21.47 21.49 21.60
8/20/2016 02:00 to 1:10 21.64 21.69 21.65 21.50 21.43 21.33
8/20/2016 01:00 to 0:10 21.34 21.23 21.11 20.96 20.70 20.75